sensor_id;sensor_type;location;lat;lon;timestamp;P1;durP1;ratioP1;P2;durP2;ratioP2
15982;SDS011;14442;50.196;8.096;2022-11-14T00:01:36;2.03;;;1.90;;
15982;SDS011;14442;50.196;8.096;2022-11-14T00:04:03;2.53;;;1.83;;
15982;SDS011;14442;50.196;8.096;2022-11-14T00:06:31;2.20;;;2.10;;
15982;SDS011;14442;50.196;8.096;2022-11-14T00:08:58;2.50;;;1.90;;
15982;SDS011;14442;50.196;8.096;2022-11-14T00:11:25;2.10;;;1.73;;
15982;SDS011;14442;50.196;8.096;2022-11-14T00:13:52;4.27;;;2.07;;
15982;SDS011;14442;50.196;8.096;2022-11-14T00:16:18;2.03;;;1.67;;
15982;SDS011;14442;50.196;8.096;2022-11-14T00:18:45;4.03;;;1.77;;
15982;SDS011;14442;50.196;8.096;2022-11-14T00:21:12;2.37;;;1.60;;
15982;SDS011;14442;50.196;8.096;2022-11-14T00:23:40;3.60;;;2.20;;
15982;SDS011;14442;50.196;8.096;2022-11-14T00:26:06;1.70;;;1.60;;
15982;SDS011;14442;50.196;8.096;2022-11-14T00:28:33;4.13;;;2.23;;
15982;SDS011;14442;50.196;8.096;2022-11-14T00:31:00;3.50;;;2.00;;
15982;SDS011;14442;50.196;8.096;2022-11-14T00:33:26;3.13;;;2.07;;
15982;SDS011;14442;50.196;8.096;2022-11-14T00:35:54;3.27;;;1.90;;
15982;SDS011;14442;50.196;8.096;2022-11-14T00:38:21;3.13;;;1.73;;
15982;SDS011;14442;50.196;8.096;2022-11-14T00:40:50;3.80;;;1.80;;
15982;SDS011;14442;50.196;8.096;2022-11-14T00:43:17;3.63;;;2.00;;
15982;SDS011;14442;50.196;8.096;2022-11-14T00:45:44;1.30;;;1.30;;
15982;SDS011;14442;50.196;8.096;2022-11-14T00:48:11;2.50;;;1.70;;
15982;SDS011;14442;50.196;8.096;2022-11-14T00:50:38;2.97;;;1.93;;
15982;SDS011;14442;50.196;8.096;2022-11-14T00:53:05;4.23;;;1.90;;
15982;SDS011;14442;50.196;8.096;2022-11-14T00:55:32;2.10;;;1.90;;
15982;SDS011;14442;50.196;8.096;2022-11-14T00:58:00;1.80;;;1.70;;
15982;SDS011;14442;50.196;8.096;2022-11-14T01:00:27;4.30;;;1.83;;
15982;SDS011;14442;50.196;8.096;2022-11-14T01:02:53;3.37;;;1.60;;
15982;SDS011;14442;50.196;8.096;2022-11-14T01:05:22;2.23;;;1.87;;
15982;SDS011;14442;50.196;8.096;2022-11-14T01:07:49;3.53;;;2.00;;
15982;SDS011;14442;50.196;8.096;2022-11-14T01:10:15;3.00;;;2.13;;
15982;SDS011;14442;50.196;8.096;2022-11-14T01:12:42;2.60;;;2.40;;
15982;SDS011;14442;50.196;8.096;2022-11-14T01:15:10;2.50;;;2.30;;
15982;SDS011;14442;50.196;8.096;2022-11-14T01:17:37;4.70;;;2.37;;
15982;SDS011;14442;50.196;8.096;2022-11-14T01:20:04;2.67;;;2.10;;
15982;SDS011;14442;50.196;8.096;2022-11-14T01:22:32;2.90;;;2.70;;
15982;SDS011;14442;50.196;8.096;2022-11-14T01:24:58;2.90;;;2.30;;
15982;SDS011;14442;50.196;8.096;2022-11-14T01:27:25;2.90;;;2.53;;
15982;SDS011;14442;50.196;8.096;2022-11-14T01:29:55;3.00;;;2.70;;
15982;SDS011;14442;50.196;8.096;2022-11-14T01:32:23;2.97;;;2.67;;
15982;SDS011;14442;50.196;8.096;2022-11-14T01:34:51;4.20;;;3.00;;
15982;SDS011;14442;50.196;8.096;2022-11-14T01:37:17;2.80;;;2.43;;
15982;SDS011;14442;50.196;8.096;2022-11-14T01:39:45;4.30;;;2.33;;
15982;SDS011;14442;50.196;8.096;2022-11-14T01:42:11;4.53;;;2.67;;
15982;SDS011;14442;50.196;8.096;2022-11-14T01:44:48;3.20;;;2.90;;
15982;SDS011;14442;50.196;8.096;2022-11-14T01:47:17;4.87;;;2.63;;
15982;SDS011;14442;50.196;8.096;2022-11-14T01:49:48;2.70;;;2.47;;
15982;SDS011;14442;50.196;8.096;2022-11-14T01:52:19;3.27;;;2.50;;
15982;SDS011;14442;50.196;8.096;2022-11-14T01:54:49;2.70;;;2.40;;
15982;SDS011;14442;50.196;8.096;2022-11-14T01:57:20;2.13;;;1.97;;
15982;SDS011;14442;50.196;8.096;2022-11-14T01:59:50;2.43;;;2.20;;
15982;SDS011;14442;50.196;8.096;2022-11-14T02:02:20;2.80;;;2.53;;
15982;SDS011;14442;50.196;8.096;2022-11-14T02:04:52;2.70;;;2.50;;
15982;SDS011;14442;50.196;8.096;2022-11-14T02:07:22;3.00;;;2.40;;
15982;SDS011;14442;50.196;8.096;2022-11-14T02:09:52;2.17;;;2.07;;
15982;SDS011;14442;50.196;8.096;2022-11-14T02:12:19;2.33;;;2.13;;
15982;SDS011;14442;50.196;8.096;2022-11-14T02:14:48;1.90;;;1.77;;
15982;SDS011;14442;50.196;8.096;2022-11-14T02:17:18;2.53;;;2.33;;
15982;SDS011;14442;50.196;8.096;2022-11-14T02:19:46;2.10;;;2.00;;
15982;SDS011;14442;50.196;8.096;2022-11-14T02:22:16;1.73;;;1.63;;
15982;SDS011;14442;50.196;8.096;2022-11-14T02:24:43;2.83;;;2.07;;
15982;SDS011;14442;50.196;8.096;2022-11-14T02:27:11;2.10;;;2.00;;
15982;SDS011;14442;50.196;8.096;2022-11-14T02:29:39;2.13;;;1.93;;
15982;SDS011;14442;50.196;8.096;2022-11-14T02:32:06;2.20;;;2.00;;
15982;SDS011;14442;50.196;8.096;2022-11-14T02:34:33;3.40;;;2.50;;
15982;SDS011;14442;50.196;8.096;2022-11-14T02:36:59;2.13;;;2.03;;
15982;SDS011;14442;50.196;8.096;2022-11-14T02:39:27;1.70;;;1.60;;
15982;SDS011;14442;50.196;8.096;2022-11-14T02:41:54;1.90;;;1.80;;
15982;SDS011;14442;50.196;8.096;2022-11-14T02:44:21;1.60;;;1.50;;
15982;SDS011;14442;50.196;8.096;2022-11-14T02:46:47;2.53;;;1.90;;
15982;SDS011;14442;50.196;8.096;2022-11-14T02:49:15;1.80;;;1.70;;
15982;SDS011;14442;50.196;8.096;2022-11-14T02:51:41;1.97;;;1.80;;
15982;SDS011;14442;50.196;8.096;2022-11-14T02:54:08;1.90;;;1.80;;
15982;SDS011;14442;50.196;8.096;2022-11-14T02:56:36;1.77;;;1.67;;
15982;SDS011;14442;50.196;8.096;2022-11-14T02:59:03;1.67;;;1.57;;
15982;SDS011;14442;50.196;8.096;2022-11-14T03:01:29;1.63;;;1.53;;
15982;SDS011;14442;50.196;8.096;2022-11-14T03:03:56;1.47;;;1.37;;
15982;SDS011;14442;50.196;8.096;2022-11-14T03:06:23;1.60;;;1.50;;
15982;SDS011;14442;50.196;8.096;2022-11-14T03:08:49;1.70;;;1.40;;
15982;SDS011;14442;50.196;8.096;2022-11-14T03:11:16;1.60;;;1.50;;
15982;SDS011;14442;50.196;8.096;2022-11-14T03:13:44;1.30;;;1.20;;
15982;SDS011;14442;50.196;8.096;2022-11-14T03:16:11;1.70;;;1.60;;
15982;SDS011;14442;50.196;8.096;2022-11-14T03:18:39;1.50;;;1.40;;
15982;SDS011;14442;50.196;8.096;2022-11-14T03:21:06;1.40;;;1.30;;
15982;SDS011;14442;50.196;8.096;2022-11-14T03:23:34;1.60;;;1.50;;
15982;SDS011;14442;50.196;8.096;2022-11-14T03:26:01;1.63;;;1.53;;
15982;SDS011;14442;50.196;8.096;2022-11-14T03:28:29;0.93;;;0.93;;
15982;SDS011;14442;50.196;8.096;2022-11-14T03:30:57;1.63;;;1.53;;
15982;SDS011;14442;50.196;8.096;2022-11-14T03:33:24;1.77;;;1.43;;
15982;SDS011;14442;50.196;8.096;2022-11-14T03:35:51;1.30;;;1.30;;
15982;SDS011;14442;50.196;8.096;2022-11-14T03:38:18;1.73;;;1.57;;
15982;SDS011;14442;50.196;8.096;2022-11-14T03:40:47;1.10;;;1.10;;
15982;SDS011;14442;50.196;8.096;2022-11-14T03:43:13;1.23;;;1.20;;
15982;SDS011;14442;50.196;8.096;2022-11-14T03:45:40;2.97;;;1.60;;
15982;SDS011;14442;50.196;8.096;2022-11-14T03:48:08;1.30;;;1.20;;
15982;SDS011;14442;50.196;8.096;2022-11-14T03:50:35;1.37;;;1.27;;
15982;SDS011;14442;50.196;8.096;2022-11-14T03:53:02;1.57;;;1.47;;
15982;SDS011;14442;50.196;8.096;2022-11-14T03:55:29;1.30;;;1.30;;
15982;SDS011;14442;50.196;8.096;2022-11-14T03:57:55;1.30;;;1.20;;
15982;SDS011;14442;50.196;8.096;2022-11-14T04:00:22;1.13;;;1.13;;
15982;SDS011;14442;50.196;8.096;2022-11-14T04:02:49;1.27;;;1.20;;
15982;SDS011;14442;50.196;8.096;2022-11-14T04:05:17;1.33;;;1.20;;
15982;SDS011;14442;50.196;8.096;2022-11-14T04:07:43;1.20;;;1.20;;
15982;SDS011;14442;50.196;8.096;2022-11-14T04:10:10;1.50;;;1.07;;
15982;SDS011;14442;50.196;8.096;2022-11-14T04:12:37;1.30;;;1.20;;
15982;SDS011;14442;50.196;8.096;2022-11-14T04:15:03;1.30;;;1.20;;
15982;SDS011;14442;50.196;8.096;2022-11-14T04:17:30;1.47;;;1.03;;
15982;SDS011;14442;50.196;8.096;2022-11-14T04:19:57;1.03;;;1.03;;
15982;SDS011;14442;50.196;8.096;2022-11-14T04:22:25;1.20;;;1.20;;
15982;SDS011;14442;50.196;8.096;2022-11-14T04:24:52;1.23;;;1.23;;
15982;SDS011;14442;50.196;8.096;2022-11-14T04:27:18;1.03;;;1.03;;
15982;SDS011;14442;50.196;8.096;2022-11-14T04:29:45;1.37;;;1.30;;
15982;SDS011;14442;50.196;8.096;2022-11-14T04:32:12;1.10;;;1.10;;
15982;SDS011;14442;50.196;8.096;2022-11-14T04:34:38;1.20;;;1.10;;
15982;SDS011;14442;50.196;8.096;2022-11-14T04:37:05;1.17;;;1.17;;
15982;SDS011;14442;50.196;8.096;2022-11-14T04:39:33;1.30;;;1.20;;
15982;SDS011;14442;50.196;8.096;2022-11-14T04:42:00;1.30;;;1.30;;
15982;SDS011;14442;50.196;8.096;2022-11-14T04:44:26;1.20;;;1.20;;
15982;SDS011;14442;50.196;8.096;2022-11-14T04:46:53;1.50;;;1.40;;
15982;SDS011;14442;50.196;8.096;2022-11-14T04:49:20;1.20;;;1.20;;
15982;SDS011;14442;50.196;8.096;2022-11-14T04:51:47;1.20;;;1.10;;
15982;SDS011;14442;50.196;8.096;2022-11-14T04:54:13;1.13;;;1.10;;
15982;SDS011;14442;50.196;8.096;2022-11-14T04:56:41;1.47;;;1.37;;
15982;SDS011;14442;50.196;8.096;2022-11-14T04:59:08;1.23;;;1.23;;
15982;SDS011;14442;50.196;8.096;2022-11-14T05:01:35;1.10;;;1.10;;
15982;SDS011;14442;50.196;8.096;2022-11-14T05:04:02;1.40;;;1.40;;
15982;SDS011;14442;50.196;8.096;2022-11-14T05:06:29;1.27;;;1.27;;
15982;SDS011;14442;50.196;8.096;2022-11-14T05:08:55;1.23;;;1.10;;
15982;SDS011;14442;50.196;8.096;2022-11-14T05:11:22;1.30;;;1.30;;
15982;SDS011;14442;50.196;8.096;2022-11-14T05:13:50;1.43;;;1.33;;
15982;SDS011;14442;50.196;8.096;2022-11-14T05:16:17;1.20;;;1.20;;
15982;SDS011;14442;50.196;8.096;2022-11-14T05:18:43;1.27;;;1.27;;
15982;SDS011;14442;50.196;8.096;2022-11-14T05:21:11;1.43;;;1.37;;
15982;SDS011;14442;50.196;8.096;2022-11-14T05:23:38;1.23;;;1.23;;
15982;SDS011;14442;50.196;8.096;2022-11-14T05:26:06;1.40;;;1.30;;
15982;SDS011;14442;50.196;8.096;2022-11-14T05:28:34;2.90;;;1.40;;
15982;SDS011;14442;50.196;8.096;2022-11-14T05:31:02;1.37;;;1.37;;
15982;SDS011;14442;50.196;8.096;2022-11-14T05:33:29;1.67;;;1.57;;
15982;SDS011;14442;50.196;8.096;2022-11-14T05:36:00;1.20;;;1.20;;
15982;SDS011;14442;50.196;8.096;2022-11-14T05:38:27;1.57;;;1.47;;
15982;SDS011;14442;50.196;8.096;2022-11-14T05:40:54;1.70;;;1.60;;
15982;SDS011;14442;50.196;8.096;2022-11-14T05:43:21;1.90;;;1.80;;
15982;SDS011;14442;50.196;8.096;2022-11-14T05:45:47;1.70;;;1.60;;
15982;SDS011;14442;50.196;8.096;2022-11-14T05:48:15;1.60;;;1.50;;
15982;SDS011;14442;50.196;8.096;2022-11-14T05:50:42;1.83;;;1.70;;
15982;SDS011;14442;50.196;8.096;2022-11-14T05:53:08;1.83;;;1.73;;
15982;SDS011;14442;50.196;8.096;2022-11-14T05:55:35;1.80;;;1.70;;
15982;SDS011;14442;50.196;8.096;2022-11-14T05:58:02;2.00;;;1.90;;
15982;SDS011;14442;50.196;8.096;2022-11-14T06:00:28;1.83;;;1.73;;
15982;SDS011;14442;50.196;8.096;2022-11-14T06:02:55;1.90;;;1.80;;
15982;SDS011;14442;50.196;8.096;2022-11-14T06:05:23;1.93;;;1.83;;
15982;SDS011;14442;50.196;8.096;2022-11-14T06:07:53;1.47;;;1.40;;
15982;SDS011;14442;50.196;8.096;2022-11-14T06:10:21;1.80;;;1.70;;
15982;SDS011;14442;50.196;8.096;2022-11-14T06:12:47;1.97;;;1.87;;
15982;SDS011;14442;50.196;8.096;2022-11-14T06:15:14;1.90;;;1.80;;
15982;SDS011;14442;50.196;8.096;2022-11-14T06:17:41;1.80;;;1.70;;
15982;SDS011;14442;50.196;8.096;2022-11-14T06:20:08;2.23;;;2.13;;
15982;SDS011;14442;50.196;8.096;2022-11-14T06:22:38;2.00;;;1.90;;
15982;SDS011;14442;50.196;8.096;2022-11-14T06:25:05;2.10;;;1.90;;
15982;SDS011;14442;50.196;8.096;2022-11-14T06:27:32;2.10;;;2.00;;
15982;SDS011;14442;50.196;8.096;2022-11-14T06:29:59;2.13;;;2.03;;
15982;SDS011;14442;50.196;8.096;2022-11-14T06:32:26;1.93;;;1.83;;
15982;SDS011;14442;50.196;8.096;2022-11-14T06:34:52;2.23;;;2.13;;
15982;SDS011;14442;50.196;8.096;2022-11-14T06:37:19;2.20;;;2.10;;
15982;SDS011;14442;50.196;8.096;2022-11-14T06:39:47;1.97;;;1.87;;
15982;SDS011;14442;50.196;8.096;2022-11-14T06:42:14;2.33;;;2.20;;
15982;SDS011;14442;50.196;8.096;2022-11-14T06:44:41;2.37;;;2.27;;
15982;SDS011;14442;50.196;8.096;2022-11-14T06:47:08;2.57;;;2.37;;
15982;SDS011;14442;50.196;8.096;2022-11-14T06:49:34;1.97;;;1.87;;
15982;SDS011;14442;50.196;8.096;2022-11-14T06:52:01;1.97;;;1.87;;
15982;SDS011;14442;50.196;8.096;2022-11-14T06:54:28;2.83;;;2.63;;
15982;SDS011;14442;50.196;8.096;2022-11-14T06:56:56;2.40;;;2.30;;
15982;SDS011;14442;50.196;8.096;2022-11-14T06:59:22;2.80;;;2.60;;
15982;SDS011;14442;50.196;8.096;2022-11-14T07:01:50;2.43;;;2.23;;
15982;SDS011;14442;50.196;8.096;2022-11-14T07:04:17;2.13;;;2.03;;
15982;SDS011;14442;50.196;8.096;2022-11-14T07:06:43;2.90;;;2.70;;
15982;SDS011;14442;50.196;8.096;2022-11-14T07:09:10;2.63;;;2.47;;
15982;SDS011;14442;50.196;8.096;2022-11-14T07:11:37;2.23;;;2.13;;
15982;SDS011;14442;50.196;8.096;2022-11-14T07:14:05;2.40;;;2.30;;
15982;SDS011;14442;50.196;8.096;2022-11-14T07:16:32;2.10;;;2.00;;
15982;SDS011;14442;50.196;8.096;2022-11-14T07:19:00;2.73;;;2.63;;
15982;SDS011;14442;50.196;8.096;2022-11-14T07:21:29;2.60;;;2.40;;
15982;SDS011;14442;50.196;8.096;2022-11-14T07:23:56;2.77;;;2.47;;
15982;SDS011;14442;50.196;8.096;2022-11-14T07:26:23;2.20;;;2.10;;
15982;SDS011;14442;50.196;8.096;2022-11-14T07:28:50;2.90;;;2.70;;
15982;SDS011;14442;50.196;8.096;2022-11-14T07:31:18;2.50;;;2.30;;
15982;SDS011;14442;50.196;8.096;2022-11-14T07:33:46;2.53;;;2.43;;
15982;SDS011;14442;50.196;8.096;2022-11-14T07:36:13;2.80;;;2.50;;
15982;SDS011;14442;50.196;8.096;2022-11-14T07:38:40;2.67;;;2.47;;
15982;SDS011;14442;50.196;8.096;2022-11-14T07:41:08;2.23;;;2.13;;
15982;SDS011;14442;50.196;8.096;2022-11-14T07:43:36;2.70;;;2.50;;
15982;SDS011;14442;50.196;8.096;2022-11-14T07:46:03;2.63;;;2.50;;
15982;SDS011;14442;50.196;8.096;2022-11-14T07:48:33;2.30;;;2.20;;
15982;SDS011;14442;50.196;8.096;2022-11-14T07:51:00;2.63;;;2.53;;
15982;SDS011;14442;50.196;8.096;2022-11-14T07:53:27;2.70;;;2.50;;
15982;SDS011;14442;50.196;8.096;2022-11-14T07:55:54;2.50;;;2.30;;
15982;SDS011;14442;50.196;8.096;2022-11-14T07:58:22;3.00;;;2.80;;
15982;SDS011;14442;50.196;8.096;2022-11-14T08:00:49;2.27;;;2.17;;
15982;SDS011;14442;50.196;8.096;2022-11-14T08:03:15;2.63;;;2.53;;
15982;SDS011;14442;50.196;8.096;2022-11-14T08:05:43;2.77;;;2.60;;
15982;SDS011;14442;50.196;8.096;2022-11-14T08:08:10;2.80;;;2.60;;
15982;SDS011;14442;50.196;8.096;2022-11-14T08:10:36;2.30;;;2.20;;
15982;SDS011;14442;50.196;8.096;2022-11-14T08:13:04;2.43;;;2.33;;
15982;SDS011;14442;50.196;8.096;2022-11-14T08:15:32;2.80;;;2.50;;
15982;SDS011;14442;50.196;8.096;2022-11-14T08:17:59;2.60;;;2.40;;
15982;SDS011;14442;50.196;8.096;2022-11-14T08:20:26;2.23;;;2.13;;
15982;SDS011;14442;50.196;8.096;2022-11-14T08:22:55;2.80;;;2.60;;
15982;SDS011;14442;50.196;8.096;2022-11-14T08:25:27;2.30;;;2.20;;
15982;SDS011;14442;50.196;8.096;2022-11-14T08:27:54;2.63;;;2.53;;
15982;SDS011;14442;50.196;8.096;2022-11-14T08:30:20;2.87;;;2.67;;
15982;SDS011;14442;50.196;8.096;2022-11-14T08:32:47;2.77;;;2.60;;
15982;SDS011;14442;50.196;8.096;2022-11-14T08:35:14;4.03;;;2.37;;
15982;SDS011;14442;50.196;8.096;2022-11-14T08:37:40;2.70;;;2.50;;
15982;SDS011;14442;50.196;8.096;2022-11-14T08:40:09;2.90;;;2.70;;
15982;SDS011;14442;50.196;8.096;2022-11-14T08:42:37;4.63;;;3.20;;
15982;SDS011;14442;50.196;8.096;2022-11-14T08:45:03;6.87;;;3.07;;
15982;SDS011;14442;50.196;8.096;2022-11-14T08:47:31;5.53;;;3.70;;
15982;SDS011;14442;50.196;8.096;2022-11-14T08:49:58;4.10;;;3.60;;
15982;SDS011;14442;50.196;8.096;2022-11-14T08:52:24;5.50;;;3.53;;
15982;SDS011;14442;50.196;8.096;2022-11-14T08:54:51;5.07;;;3.50;;
15982;SDS011;14442;50.196;8.096;2022-11-14T08:57:19;5.43;;;3.60;;
15982;SDS011;14442;50.196;8.096;2022-11-14T08:59:46;5.70;;;3.50;;
15982;SDS011;14442;50.196;8.096;2022-11-14T09:02:12;7.33;;;3.40;;
15982;SDS011;14442;50.196;8.096;2022-11-14T09:04:39;7.83;;;3.77;;
15982;SDS011;14442;50.196;8.096;2022-11-14T09:07:06;4.77;;;3.60;;
15982;SDS011;14442;50.196;8.096;2022-11-14T09:09:33;12.93;;;4.17;;
15982;SDS011;14442;50.196;8.096;2022-11-14T09:12:00;7.00;;;3.80;;
15982;SDS011;14442;50.196;8.096;2022-11-14T09:14:28;8.07;;;3.50;;
15982;SDS011;14442;50.196;8.096;2022-11-14T09:16:54;4.97;;;3.37;;
15982;SDS011;14442;50.196;8.096;2022-11-14T09:19:21;5.13;;;3.70;;
15982;SDS011;14442;50.196;8.096;2022-11-14T09:21:47;8.27;;;3.40;;
15982;SDS011;14442;50.196;8.096;2022-11-14T09:24:14;3.50;;;3.10;;
15982;SDS011;14442;50.196;8.096;2022-11-14T09:26:41;5.13;;;3.67;;
15982;SDS011;14442;50.196;8.096;2022-11-14T09:29:07;8.30;;;3.60;;
15982;SDS011;14442;50.196;8.096;2022-11-14T09:31:35;4.17;;;3.13;;
15982;SDS011;14442;50.196;8.096;2022-11-14T09:34:02;7.10;;;3.27;;
15982;SDS011;14442;50.196;8.096;2022-11-14T09:36:29;4.60;;;3.60;;
15982;SDS011;14442;50.196;8.096;2022-11-14T09:38:55;4.47;;;3.20;;
15982;SDS011;14442;50.196;8.096;2022-11-14T09:41:22;5.37;;;3.27;;
15982;SDS011;14442;50.196;8.096;2022-11-14T09:43:58;6.97;;;3.27;;
15982;SDS011;14442;50.196;8.096;2022-11-14T09:46:40;5.87;;;3.57;;
15982;SDS011;14442;50.196;8.096;2022-11-14T09:49:10;3.47;;;2.97;;
15982;SDS011;14442;50.196;8.096;2022-11-14T09:51:48;6.97;;;3.20;;
15982;SDS011;14442;50.196;8.096;2022-11-14T09:54:20;2.83;;;2.63;;
15982;SDS011;14442;50.196;8.096;2022-11-14T09:56:50;3.97;;;3.57;;
15982;SDS011;14442;50.196;8.096;2022-11-14T09:59:16;4.23;;;2.93;;
15982;SDS011;14442;50.196;8.096;2022-11-14T10:01:46;4.30;;;3.00;;
15982;SDS011;14442;50.196;8.096;2022-11-14T10:04:23;5.00;;;3.00;;
15982;SDS011;14442;50.196;8.096;2022-11-14T10:07:01;12.27;;;3.00;;
15982;SDS011;14442;50.196;8.096;2022-11-14T10:09:43;5.70;;;3.37;;
15982;SDS011;14442;50.196;8.096;2022-11-14T10:12:21;4.57;;;3.10;;
15982;SDS011;14442;50.196;8.096;2022-11-14T10:14:55;3.40;;;3.10;;
15982;SDS011;14442;50.196;8.096;2022-11-14T10:17:46;2.93;;;2.70;;
15982;SDS011;14442;50.196;8.096;2022-11-14T10:20:23;4.80;;;3.53;;
15982;SDS011;14442;50.196;8.096;2022-11-14T10:22:57;3.30;;;3.00;;
15982;SDS011;14442;50.196;8.096;2022-11-14T10:25:34;6.13;;;3.57;;
15982;SDS011;14442;50.196;8.096;2022-11-14T10:28:17;3.77;;;2.73;;
15982;SDS011;14442;50.196;8.096;2022-11-14T10:30:55;3.43;;;3.13;;
15982;SDS011;14442;50.196;8.096;2022-11-14T10:33:34;3.33;;;2.63;;
15982;SDS011;14442;50.196;8.096;2022-11-14T10:36:10;3.83;;;3.40;;
15982;SDS011;14442;50.196;8.096;2022-11-14T10:38:46;4.47;;;3.17;;
15982;SDS011;14442;50.196;8.096;2022-11-14T10:41:17;5.40;;;3.03;;
15982;SDS011;14442;50.196;8.096;2022-11-14T10:43:45;3.37;;;2.97;;
15982;SDS011;14442;50.196;8.096;2022-11-14T10:46:14;3.67;;;2.90;;
15982;SDS011;14442;50.196;8.096;2022-11-14T10:48:45;4.50;;;3.00;;
15982;SDS011;14442;50.196;8.096;2022-11-14T10:51:17;3.53;;;3.20;;
15982;SDS011;14442;50.196;8.096;2022-11-14T10:53:48;3.03;;;2.63;;
15982;SDS011;14442;50.196;8.096;2022-11-14T10:56:18;3.37;;;2.50;;
15982;SDS011;14442;50.196;8.096;2022-11-14T10:58:44;3.13;;;2.63;;
15982;SDS011;14442;50.196;8.096;2022-11-14T11:04:11;4.93;;;3.17;;
15982;SDS011;14442;50.196;8.096;2022-11-14T11:06:40;2.80;;;2.37;;
15982;SDS011;14442;50.196;8.096;2022-11-14T11:09:07;5.80;;;2.93;;
15982;SDS011;14442;50.196;8.096;2022-11-14T11:11:56;6.80;;;3.23;;
15982;SDS011;14442;50.196;8.096;2022-11-14T11:14:25;7.33;;;2.70;;
15982;SDS011;14442;50.196;8.096;2022-11-14T11:17:06;6.07;;;2.77;;
15982;SDS011;14442;50.196;8.096;2022-11-14T11:19:46;5.80;;;2.90;;
15982;SDS011;14442;50.196;8.096;2022-11-14T11:28:02;4.90;;;2.87;;
15982;SDS011;14442;50.196;8.096;2022-11-14T11:30:30;6.30;;;2.70;;
15982;SDS011;14442;50.196;8.096;2022-11-14T11:33:05;4.00;;;2.90;;
15982;SDS011;14442;50.196;8.096;2022-11-14T11:35:41;3.07;;;2.67;;
15982;SDS011;14442;50.196;8.096;2022-11-14T11:38:10;4.53;;;2.53;;
15982;SDS011;14442;50.196;8.096;2022-11-14T11:40:37;4.10;;;2.60;;
15982;SDS011;14442;50.196;8.096;2022-11-14T11:43:08;3.63;;;2.90;;
15982;SDS011;14442;50.196;8.096;2022-11-14T11:45:40;2.80;;;2.50;;
15982;SDS011;14442;50.196;8.096;2022-11-14T11:48:12;3.43;;;3.13;;
15982;SDS011;14442;50.196;8.096;2022-11-14T11:50:44;3.93;;;2.77;;
15982;SDS011;14442;50.196;8.096;2022-11-14T11:53:13;2.40;;;2.20;;
15982;SDS011;14442;50.196;8.096;2022-11-14T11:55:43;2.63;;;2.43;;
15982;SDS011;14442;50.196;8.096;2022-11-14T11:58:14;2.60;;;2.40;;
15982;SDS011;14442;50.196;8.096;2022-11-14T12:00:45;2.50;;;2.30;;
15982;SDS011;14442;50.196;8.096;2022-11-14T12:03:12;2.40;;;2.20;;
15982;SDS011;14442;50.196;8.096;2022-11-14T12:05:42;2.60;;;2.40;;
15982;SDS011;14442;50.196;8.096;2022-11-14T12:08:16;2.47;;;2.27;;
15982;SDS011;14442;50.196;8.096;2022-11-14T12:10:51;2.73;;;2.53;;
15982;SDS011;14442;50.196;8.096;2022-11-14T12:13:30;2.37;;;2.03;;
15982;SDS011;14442;50.196;8.096;2022-11-14T12:16:27;3.17;;;1.87;;
15982;SDS011;14442;50.196;8.096;2022-11-14T12:19:25;6.73;;;2.60;;
15982;SDS011;14442;50.196;8.096;2022-11-14T12:22:10;5.30;;;2.30;;
15982;SDS011;14442;50.196;8.096;2022-11-14T12:28:23;5.03;;;2.60;;
15982;SDS011;14442;50.196;8.096;2022-11-14T12:31:05;6.17;;;2.10;;
15982;SDS011;14442;50.196;8.096;2022-11-14T12:33:37;6.60;;;2.23;;
15982;SDS011;14442;50.196;8.096;2022-11-14T12:36:08;4.73;;;2.30;;
15982;SDS011;14442;50.196;8.096;2022-11-14T12:38:41;5.50;;;2.20;;
15982;SDS011;14442;50.196;8.096;2022-11-14T12:41:11;5.60;;;2.30;;
15982;SDS011;14442;50.196;8.096;2022-11-14T12:43:45;6.47;;;2.03;;
15982;SDS011;14442;50.196;8.096;2022-11-14T12:46:12;5.10;;;2.27;;
15982;SDS011;14442;50.196;8.096;2022-11-14T12:48:39;3.90;;;2.17;;
15982;SDS011;14442;50.196;8.096;2022-11-14T12:54:08;4.23;;;2.50;;
15982;SDS011;14442;50.196;8.096;2022-11-14T12:57:08;3.70;;;2.40;;
15982;SDS011;14442;50.196;8.096;2022-11-14T13:00:02;6.03;;;2.03;;
15982;SDS011;14442;50.196;8.096;2022-11-14T13:02:51;6.20;;;2.53;;
15982;SDS011;14442;50.196;8.096;2022-11-14T13:05:39;7.07;;;2.27;;
15982;SDS011;14442;50.196;8.096;2022-11-14T13:08:17;3.17;;;1.67;;
15982;SDS011;14442;50.196;8.096;2022-11-14T13:14:14;2.80;;;2.03;;
15982;SDS011;14442;50.196;8.096;2022-11-14T13:17:07;2.57;;;1.87;;
15982;SDS011;14442;50.196;8.096;2022-11-14T13:19:52;2.93;;;2.03;;
15982;SDS011;14442;50.196;8.096;2022-11-14T13:22:38;3.93;;;1.83;;
15982;SDS011;14442;50.196;8.096;2022-11-14T13:25:16;1.97;;;1.77;;
15982;SDS011;14442;50.196;8.096;2022-11-14T13:27:46;2.93;;;1.83;;
15982;SDS011;14442;50.196;8.096;2022-11-14T13:30:13;2.57;;;2.10;;
15982;SDS011;14442;50.196;8.096;2022-11-14T13:35:39;2.33;;;1.93;;
15982;SDS011;14442;50.196;8.096;2022-11-14T13:38:30;2.10;;;1.90;;
15982;SDS011;14442;50.196;8.096;2022-11-14T13:41:19;1.97;;;1.80;;
15982;SDS011;14442;50.196;8.096;2022-11-14T13:44:08;8.23;;;2.23;;
15982;SDS011;14442;50.196;8.096;2022-11-14T13:46:57;5.13;;;1.83;;
15982;SDS011;14442;50.196;8.096;2022-11-14T13:49:42;7.53;;;2.40;;
15982;SDS011;14442;50.196;8.096;2022-11-14T13:52:18;7.77;;;2.33;;
15982;SDS011;14442;50.196;8.096;2022-11-14T13:54:46;3.80;;;2.10;;
15982;SDS011;14442;50.196;8.096;2022-11-14T13:57:15;4.67;;;2.20;;
15982;SDS011;14442;50.196;8.096;2022-11-14T14:00:00;2.00;;;1.90;;
15982;SDS011;14442;50.196;8.096;2022-11-14T14:02:47;2.97;;;1.93;;
15982;SDS011;14442;50.196;8.096;2022-11-14T14:05:34;2.13;;;1.80;;
15982;SDS011;14442;50.196;8.096;2022-11-14T14:08:28;2.17;;;1.67;;
15982;SDS011;14442;50.196;8.096;2022-11-14T14:11:14;2.03;;;1.60;;
15982;SDS011;14442;50.196;8.096;2022-11-14T14:13:56;1.73;;;1.60;;
15982;SDS011;14442;50.196;8.096;2022-11-14T14:16:33;1.77;;;1.63;;
15982;SDS011;14442;50.196;8.096;2022-11-14T14:19:05;6.23;;;2.13;;
15982;SDS011;14442;50.196;8.096;2022-11-14T14:21:41;2.53;;;1.53;;
15982;SDS011;14442;50.196;8.096;2022-11-14T14:24:16;2.50;;;1.50;;
15982;SDS011;14442;50.196;8.096;2022-11-14T14:26:58;2.93;;;1.63;;
15982;SDS011;14442;50.196;8.096;2022-11-14T14:29:32;4.07;;;1.87;;
15982;SDS011;14442;50.196;8.096;2022-11-14T14:32:11;4.33;;;1.97;;
15982;SDS011;14442;50.196;8.096;2022-11-14T14:34:39;3.20;;;1.80;;
15982;SDS011;14442;50.196;8.096;2022-11-14T14:37:13;4.13;;;1.80;;
15982;SDS011;14442;50.196;8.096;2022-11-14T14:39:54;5.53;;;1.70;;
15982;SDS011;14442;50.196;8.096;2022-11-14T14:42:21;3.67;;;1.70;;
15982;SDS011;14442;50.196;8.096;2022-11-14T14:44:49;4.03;;;1.60;;
15982;SDS011;14442;50.196;8.096;2022-11-14T14:47:26;2.10;;;1.67;;
15982;SDS011;14442;50.196;8.096;2022-11-14T14:49:58;2.00;;;1.63;;
15982;SDS011;14442;50.196;8.096;2022-11-14T14:52:27;2.80;;;1.67;;
15982;SDS011;14442;50.196;8.096;2022-11-14T14:54:55;3.47;;;1.40;;
15982;SDS011;14442;50.196;8.096;2022-11-14T14:57:26;5.03;;;1.50;;
15982;SDS011;14442;50.196;8.096;2022-11-14T15:00:00;2.13;;;1.47;;
15982;SDS011;14442;50.196;8.096;2022-11-14T15:02:30;2.13;;;1.20;;
15982;SDS011;14442;50.196;8.096;2022-11-14T15:04:57;1.83;;;1.30;;
15982;SDS011;14442;50.196;8.096;2022-11-14T15:07:26;3.97;;;1.60;;
15982;SDS011;14442;50.196;8.096;2022-11-14T15:09:55;3.07;;;1.40;;
15982;SDS011;14442;50.196;8.096;2022-11-14T15:12:24;2.53;;;1.73;;
15982;SDS011;14442;50.196;8.096;2022-11-14T15:14:54;1.57;;;1.40;;
15982;SDS011;14442;50.196;8.096;2022-11-14T15:17:21;3.17;;;1.40;;
15982;SDS011;14442;50.196;8.096;2022-11-14T15:19:51;3.00;;;1.40;;
15982;SDS011;14442;50.196;8.096;2022-11-14T15:22:19;4.43;;;1.33;;
15982;SDS011;14442;50.196;8.096;2022-11-14T15:25:05;4.07;;;2.00;;
15982;SDS011;14442;50.196;8.096;2022-11-14T15:27:46;1.80;;;1.23;;